sensor_id;sensor_type;location;lat;lon;timestamp;pressure;altitude;pressure_sealevel;temperature;humidity
19676;BME280;39539;52.202;9.876;2023-05-03T00:00:03;102124.56;;;3.96;100.00
19676;BME280;39539;52.202;9.876;2023-05-03T00:02:35;102127.41;;;3.93;100.00
19676;BME280;39539;52.202;9.876;2023-05-03T00:05:03;102121.47;;;3.91;100.00
19676;BME280;39539;52.202;9.876;2023-05-03T00:07:30;102118.50;;;3.85;100.00
19676;BME280;39539;52.202;9.876;2023-05-03T00:09:56;102130.44;;;3.89;100.00
19676;BME280;39539;52.202;9.876;2023-05-03T00:12:21;102125.03;;;3.90;100.00
19676;BME280;39539;52.202;9.876;2023-05-03T00:14:46;102130.66;;;3.97;100.00
19676;BME280;39539;52.202;9.876;2023-05-03T00:17:12;102120.25;;;3.95;100.00
19676;BME280;39539;52.202;9.876;2023-05-03T00:19:37;102122.81;;;4.07;100.00
19676;BME280;39539;52.202;9.876;2023-05-03T00:22:04;102129.41;;;4.01;100.00
19676;BME280;39539;52.202;9.876;2023-05-03T00:24:29;102130.13;;;4.03;100.00
19676;BME280;39539;52.202;9.876;2023-05-03T00:26:54;102118.59;;;3.94;100.00
19676;BME280;39539;52.202;9.876;2023-05-03T00:29:20;102116.00;;;3.83;100.00
19676;BME280;39539;52.202;9.876;2023-05-03T00:31:47;102111.56;;;3.83;100.00
19676;BME280;39539;52.202;9.876;2023-05-03T00:34:12;102125.28;;;3.87;100.00
19676;BME280;39539;52.202;9.876;2023-05-03T00:36:38;102129.63;;;3.88;100.00
19676;BME280;39539;52.202;9.876;2023-05-03T00:39:03;102108.75;;;3.75;100.00
19676;BME280;39539;52.202;9.876;2023-05-03T00:41:28;102112.91;;;3.78;100.00
19676;BME280;39539;52.202;9.876;2023-05-03T00:43:53;102122.59;;;3.77;100.00
19676;BME280;39539;52.202;9.876;2023-05-03T00:46:19;102121.78;;;3.77;100.00
19676;BME280;39539;52.202;9.876;2023-05-03T00:48:47;102125.34;;;3.76;100.00
19676;BME280;39539;52.202;9.876;2023-05-03T00:51:13;102125.59;;;3.73;100.00
19676;BME280;39539;52.202;9.876;2023-05-03T00:53:40;102125.38;;;3.65;100.00
19676;BME280;39539;52.202;9.876;2023-05-03T00:56:08;102119.22;;;3.54;100.00
19676;BME280;39539;52.202;9.876;2023-05-03T00:58:35;102114.13;;;3.42;100.00
19676;BME280;39539;52.202;9.876;2023-05-03T01:01:04;102133.91;;;3.57;100.00
19676;BME280;39539;52.202;9.876;2023-05-03T01:03:31;102134.88;;;3.56;100.00
19676;BME280;39539;52.202;9.876;2023-05-03T01:06:04;102128.78;;;3.55;100.00
19676;BME280;39539;52.202;9.876;2023-05-03T01:09:01;102121.59;;;3.57;100.00
19676;BME280;39539;52.202;9.876;2023-05-03T01:11:36;102104.19;;;3.45;100.00
19676;BME280;39539;52.202;9.876;2023-05-03T01:17:01;102108.50;;;3.46;100.00
19676;BME280;39539;52.202;9.876;2023-05-03T01:19:43;102114.00;;;3.43;100.00
19676;BME280;39539;52.202;9.876;2023-05-03T01:22:21;102124.28;;;3.46;100.00
19676;BME280;39539;52.202;9.876;2023-05-03T01:24:59;102132.16;;;3.46;100.00
19676;BME280;39539;52.202;9.876;2023-05-03T01:27:24;102114.97;;;3.31;100.00
19676;BME280;39539;52.202;9.876;2023-05-03T01:29:49;102109.97;;;3.28;100.00
19676;BME280;39539;52.202;9.876;2023-05-03T01:32:24;102133.13;;;3.34;100.00
19676;BME280;39539;52.202;9.876;2023-05-03T01:35:03;102142.44;;;3.38;100.00
19676;BME280;39539;52.202;9.876;2023-05-03T01:37:31;102120.47;;;3.28;100.00
19676;BME280;39539;52.202;9.876;2023-05-03T01:40:01;102137.69;;;3.32;100.00
19676;BME280;39539;52.202;9.876;2023-05-03T01:42:28;102138.19;;;3.26;100.00
19676;BME280;39539;52.202;9.876;2023-05-03T01:44:55;102141.50;;;3.28;100.00
19676;BME280;39539;52.202;9.876;2023-05-03T01:47:20;102134.25;;;3.20;100.00
19676;BME280;39539;52.202;9.876;2023-05-03T01:49:47;102139.50;;;3.20;100.00
19676;BME280;39539;52.202;9.876;2023-05-03T01:52:12;102125.53;;;3.08;100.00
19676;BME280;39539;52.202;9.876;2023-05-03T01:54:38;102135.34;;;3.18;100.00
19676;BME280;39539;52.202;9.876;2023-05-03T01:57:03;102146.75;;;3.28;100.00
19676;BME280;39539;52.202;9.876;2023-05-03T01:59:29;102130.06;;;3.18;100.00
19676;BME280;39539;52.202;9.876;2023-05-03T02:01:54;102143.66;;;3.23;100.00
19676;BME280;39539;52.202;9.876;2023-05-03T02:04:20;102154.16;;;3.23;100.00
19676;BME280;39539;52.202;9.876;2023-05-03T02:06:45;102133.78;;;3.04;100.00
19676;BME280;39539;52.202;9.876;2023-05-03T02:09:11;102145.59;;;3.09;100.00
19676;BME280;39539;52.202;9.876;2023-05-03T02:11:36;102132.50;;;2.98;100.00
19676;BME280;39539;52.202;9.876;2023-05-03T02:14:01;102155.16;;;3.10;100.00
19676;BME280;39539;52.202;9.876;2023-05-03T02:16:27;102134.16;;;2.99;100.00
19676;BME280;39539;52.202;9.876;2023-05-03T02:18:54;102167.56;;;3.08;100.00
19676;BME280;39539;52.202;9.876;2023-05-03T02:21:24;102160.97;;;3.14;100.00
19676;BME280;39539;52.202;9.876;2023-05-03T02:23:50;102152.53;;;3.10;100.00
19676;BME280;39539;52.202;9.876;2023-05-03T02:26:15;102149.06;;;2.99;100.00
19676;BME280;39539;52.202;9.876;2023-05-03T02:28:41;102163.53;;;2.93;100.00
19676;BME280;39539;52.202;9.876;2023-05-03T02:31:06;102157.53;;;2.91;100.00
19676;BME280;39539;52.202;9.876;2023-05-03T02:33:33;102156.22;;;2.85;100.00
19676;BME280;39539;52.202;9.876;2023-05-03T02:35:58;102161.84;;;2.92;100.00
19676;BME280;39539;52.202;9.876;2023-05-03T02:38:24;102163.19;;;2.86;100.00
19676;BME280;39539;52.202;9.876;2023-05-03T02:40:49;102170.91;;;2.88;100.00
19676;BME280;39539;52.202;9.876;2023-05-03T02:43:15;102175.00;;;2.92;100.00
19676;BME280;39539;52.202;9.876;2023-05-03T02:45:42;102176.16;;;2.88;100.00
19676;BME280;39539;52.202;9.876;2023-05-03T02:48:07;102185.34;;;2.93;100.00
19676;BME280;39539;52.202;9.876;2023-05-03T02:50:33;102171.75;;;2.88;100.00
19676;BME280;39539;52.202;9.876;2023-05-03T02:52:59;102185.72;;;2.78;100.00
19676;BME280;39539;52.202;9.876;2023-05-03T02:55:24;102179.75;;;2.64;100.00
19676;BME280;39539;52.202;9.876;2023-05-03T02:57:50;102174.59;;;2.63;100.00
19676;BME280;39539;52.202;9.876;2023-05-03T03:00:15;102161.94;;;2.57;100.00
19676;BME280;39539;52.202;9.876;2023-05-03T03:02:42;102176.25;;;2.53;100.00
19676;BME280;39539;52.202;9.876;2023-05-03T03:05:07;102185.94;;;2.52;100.00
19676;BME280;39539;52.202;9.876;2023-05-03T03:07:33;102190.78;;;2.45;100.00
19676;BME280;39539;52.202;9.876;2023-05-03T03:09:59;102177.03;;;2.31;100.00
19676;BME280;39539;52.202;9.876;2023-05-03T03:12:25;102187.06;;;2.37;100.00
19676;BME280;39539;52.202;9.876;2023-05-03T03:14:51;102185.88;;;2.30;100.00
19676;BME280;39539;52.202;9.876;2023-05-03T03:17:17;102194.91;;;2.25;100.00
19676;BME280;39539;52.202;9.876;2023-05-03T03:19:42;102184.16;;;2.17;100.00
19676;BME280;39539;52.202;9.876;2023-05-03T03:22:07;102201.72;;;2.28;100.00
19676;BME280;39539;52.202;9.876;2023-05-03T03:24:34;102174.84;;;2.13;100.00
19676;BME280;39539;52.202;9.876;2023-05-03T03:26:59;102188.91;;;2.12;100.00
19676;BME280;39539;52.202;9.876;2023-05-03T03:29:25;102192.72;;;2.08;100.00
19676;BME280;39539;52.202;9.876;2023-05-03T03:31:50;102186.03;;;2.04;100.00
19676;BME280;39539;52.202;9.876;2023-05-03T03:34:16;102196.47;;;1.93;100.00
19676;BME280;39539;52.202;9.876;2023-05-03T03:36:41;102194.22;;;1.99;100.00
19676;BME280;39539;52.202;9.876;2023-05-03T03:39:06;102192.34;;;2.01;100.00
19676;BME280;39539;52.202;9.876;2023-05-03T03:41:33;102191.50;;;2.01;100.00
19676;BME280;39539;52.202;9.876;2023-05-03T03:43:58;102198.28;;;2.03;100.00
19676;BME280;39539;52.202;9.876;2023-05-03T03:46:24;102178.81;;;1.95;100.00
19676;BME280;39539;52.202;9.876;2023-05-03T03:48:49;102202.88;;;2.13;100.00
19676;BME280;39539;52.202;9.876;2023-05-03T03:51:15;102208.38;;;2.21;100.00
19676;BME280;39539;52.202;9.876;2023-05-03T03:53:40;102211.56;;;2.13;100.00
19676;BME280;39539;52.202;9.876;2023-05-03T03:56:06;102207.53;;;2.20;100.00
19676;BME280;39539;52.202;9.876;2023-05-03T03:58:32;102189.34;;;2.06;100.00
19676;BME280;39539;52.202;9.876;2023-05-03T04:00:57;102206.09;;;2.16;100.00
19676;BME280;39539;52.202;9.876;2023-05-03T04:03:25;102208.63;;;2.29;100.00
19676;BME280;39539;52.202;9.876;2023-05-03T04:05:50;102199.00;;;2.30;100.00
19676;BME280;39539;52.202;9.876;2023-05-03T04:08:16;102215.00;;;2.49;100.00
19676;BME280;39539;52.202;9.876;2023-05-03T04:10:41;102209.66;;;2.51;100.00
19676;BME280;39539;52.202;9.876;2023-05-03T04:13:08;102190.19;;;2.42;100.00
19676;BME280;39539;52.202;9.876;2023-05-03T04:15:37;102208.13;;;2.59;100.00
19676;BME280;39539;52.202;9.876;2023-05-03T04:18:02;102207.66;;;2.65;100.00
19676;BME280;39539;52.202;9.876;2023-05-03T04:20:28;102202.06;;;2.70;100.00
19676;BME280;39539;52.202;9.876;2023-05-03T04:22:53;102208.88;;;2.84;100.00
19676;BME280;39539;52.202;9.876;2023-05-03T04:25:20;102191.69;;;2.80;100.00
19676;BME280;39539;52.202;9.876;2023-05-03T04:27:46;102207.34;;;2.92;100.00
19676;BME280;39539;52.202;9.876;2023-05-03T04:30:12;102205.88;;;3.00;100.00
19676;BME280;39539;52.202;9.876;2023-05-03T04:32:41;102213.41;;;3.15;100.00
19676;BME280;39539;52.202;9.876;2023-05-03T04:35:09;102216.16;;;3.25;100.00
19676;BME280;39539;52.202;9.876;2023-05-03T04:37:36;102206.13;;;3.30;100.00
19676;BME280;39539;52.202;9.876;2023-05-03T04:40:03;102227.44;;;3.71;100.00
19676;BME280;39539;52.202;9.876;2023-05-03T04:42:33;102240.03;;;4.32;100.00
19676;BME280;39539;52.202;9.876;2023-05-03T04:45:01;102248.00;;;4.83;100.00
19676;BME280;39539;52.202;9.876;2023-05-03T04:47:32;102223.56;;;5.02;98.54
19676;BME280;39539;52.202;9.876;2023-05-03T04:49:57;102237.63;;;5.12;96.60
19676;BME280;39539;52.202;9.876;2023-05-03T04:52:24;102237.84;;;5.09;96.94
19676;BME280;39539;52.202;9.876;2023-05-03T04:54:52;102229.03;;;5.20;96.66
19676;BME280;39539;52.202;9.876;2023-05-03T04:57:21;102203.09;;;5.15;96.26
19676;BME280;39539;52.202;9.876;2023-05-03T04:59:47;102214.47;;;5.26;96.26
19676;BME280;39539;52.202;9.876;2023-05-03T05:02:12;102225.44;;;5.21;95.47
19676;BME280;39539;52.202;9.876;2023-05-03T05:04:39;102213.75;;;5.14;95.68
19676;BME280;39539;52.202;9.876;2023-05-03T05:07:04;102215.41;;;5.15;95.35
19676;BME280;39539;52.202;9.876;2023-05-03T05:09:30;102192.13;;;5.20;95.97
19676;BME280;39539;52.202;9.876;2023-05-03T05:11:56;102224.88;;;5.68;94.51
19676;BME280;39539;52.202;9.876;2023-05-03T05:14:23;102204.16;;;5.63;93.74
19676;BME280;39539;52.202;9.876;2023-05-03T05:16:48;102195.00;;;5.48;94.85
19676;BME280;39539;52.202;9.876;2023-05-03T05:19:13;102186.63;;;5.33;95.59
19676;BME280;39539;52.202;9.876;2023-05-03T05:21:39;102217.63;;;5.60;96.97
19676;BME280;39539;52.202;9.876;2023-05-03T05:24:06;102220.53;;;5.57;96.95
19676;BME280;39539;52.202;9.876;2023-05-03T05:26:32;102222.00;;;5.80;97.04
19676;BME280;39539;52.202;9.876;2023-05-03T05:29:00;102226.63;;;5.98;96.66
19676;BME280;39539;52.202;9.876;2023-05-03T05:31:26;102233.72;;;6.26;98.22
19676;BME280;39539;52.202;9.876;2023-05-03T05:33:52;102232.44;;;6.50;95.83
19676;BME280;39539;52.202;9.876;2023-05-03T05:36:23;102241.25;;;6.88;94.17
19676;BME280;39539;52.202;9.876;2023-05-03T05:38:49;102238.81;;;7.04;92.16
19676;BME280;39539;52.202;9.876;2023-05-03T05:41:15;102244.16;;;7.32;92.61
19676;BME280;39539;52.202;9.876;2023-05-03T05:43:40;102248.88;;;7.83;89.98
19676;BME280;39539;52.202;9.876;2023-05-03T05:46:06;102253.59;;;8.43;87.43
19676;BME280;39539;52.202;9.876;2023-05-03T05:48:32;102251.72;;;9.14;83.30
19676;BME280;39539;52.202;9.876;2023-05-03T05:50:58;102244.03;;;9.87;79.63
19676;BME280;39539;52.202;9.876;2023-05-03T05:53:24;102235.75;;;10.81;75.58
19676;BME280;39539;52.202;9.876;2023-05-03T05:55:51;102233.56;;;12.63;68.50
19676;BME280;39539;52.202;9.876;2023-05-03T05:58:16;102229.22;;;15.21;61.38
19676;BME280;39539;52.202;9.876;2023-05-03T06:00:42;102194.91;;;18.13;51.90
19676;BME280;39539;52.202;9.876;2023-05-03T06:03:07;102180.88;;;20.24;47.01
19676;BME280;39539;52.202;9.876;2023-05-03T06:05:39;102164.22;;;22.61;43.10
19676;BME280;39539;52.202;9.876;2023-05-03T06:08:04;102141.00;;;23.68;41.06
19676;BME280;39539;52.202;9.876;2023-05-03T06:10:30;102135.91;;;25.40;38.05
19676;BME280;39539;52.202;9.876;2023-05-03T06:12:56;102121.44;;;26.11;35.83
19676;BME280;39539;52.202;9.876;2023-05-03T06:15:21;102104.16;;;27.80;34.49
19676;BME280;39539;52.202;9.876;2023-05-03T06:17:47;102101.69;;;27.79;33.75
19676;BME280;39539;52.202;9.876;2023-05-03T06:20:15;102102.19;;;28.10;33.23
19676;BME280;39539;52.202;9.876;2023-05-03T06:22:41;102101.94;;;27.82;33.61
19676;BME280;39539;52.202;9.876;2023-05-03T06:25:07;102103.38;;;27.74;33.03
19676;BME280;39539;52.202;9.876;2023-05-03T06:27:33;102107.84;;;28.67;33.08
19676;BME280;39539;52.202;9.876;2023-05-03T06:30:05;102110.88;;;28.17;32.74
19676;BME280;39539;52.202;9.876;2023-05-03T06:32:32;102120.13;;;28.88;31.32
19676;BME280;39539;52.202;9.876;2023-05-03T06:34:58;102117.50;;;28.11;31.13
19676;BME280;39539;52.202;9.876;2023-05-03T06:37:30;102118.03;;;28.37;30.96
19676;BME280;39539;52.202;9.876;2023-05-03T06:39:56;102121.63;;;28.99;31.24
19676;BME280;39539;52.202;9.876;2023-05-03T06:42:26;102130.47;;;29.81;30.80
19676;BME280;39539;52.202;9.876;2023-05-03T06:44:52;102116.34;;;30.34;28.82
19676;BME280;39539;52.202;9.876;2023-05-03T06:47:17;102122.84;;;31.24;29.11
19676;BME280;39539;52.202;9.876;2023-05-03T06:49:44;102111.81;;;31.61;28.39
19676;BME280;39539;52.202;9.876;2023-05-03T06:52:10;102132.09;;;31.06;27.30
19676;BME280;39539;52.202;9.876;2023-05-03T06:54:37;102111.88;;;30.52;26.69
19676;BME280;39539;52.202;9.876;2023-05-03T06:57:02;102112.44;;;29.28;29.48
19676;BME280;39539;52.202;9.876;2023-05-03T06:59:29;102115.97;;;29.47;29.84
19676;BME280;39539;52.202;9.876;2023-05-03T07:01:56;102106.75;;;30.17;29.22
19676;BME280;39539;52.202;9.876;2023-05-03T07:04:21;102116.91;;;30.03;28.28
19676;BME280;39539;52.202;9.876;2023-05-03T07:06:46;102111.72;;;30.84;27.57
19676;BME280;39539;52.202;9.876;2023-05-03T07:09:17;102096.25;;;28.94;27.47
19676;BME280;39539;52.202;9.876;2023-05-03T07:11:43;102097.56;;;28.34;28.55
19676;BME280;39539;52.202;9.876;2023-05-03T07:14:18;102112.94;;;29.82;28.26
19676;BME280;39539;52.202;9.876;2023-05-03T07:16:47;102104.66;;;29.35;28.40
19676;BME280;39539;52.202;9.876;2023-05-03T07:19:14;102099.25;;;30.51;28.34
19676;BME280;39539;52.202;9.876;2023-05-03T07:21:39;102099.25;;;31.68;26.49
19676;BME280;39539;52.202;9.876;2023-05-03T07:24:05;102107.88;;;31.84;26.05
19676;BME280;39539;52.202;9.876;2023-05-03T07:26:32;102101.50;;;32.46;25.55
19676;BME280;39539;52.202;9.876;2023-05-03T07:28:58;102084.84;;;29.24;27.12
19676;BME280;39539;52.202;9.876;2023-05-03T07:31:23;102088.22;;;27.24;28.92
19676;BME280;39539;52.202;9.876;2023-05-03T07:33:50;102098.72;;;27.75;29.42
19676;BME280;39539;52.202;9.876;2023-05-03T07:36:17;102084.13;;;25.81;28.96
19676;BME280;39539;52.202;9.876;2023-05-03T07:38:42;102059.47;;;23.58;31.73
19676;BME280;39539;52.202;9.876;2023-05-03T07:41:08;102083.88;;;24.38;32.05
19676;BME280;39539;52.202;9.876;2023-05-03T07:43:34;102096.97;;;26.76;31.11
19676;BME280;39539;52.202;9.876;2023-05-03T07:46:00;102067.50;;;23.80;30.91
19676;BME280;39539;52.202;9.876;2023-05-03T07:48:25;102054.00;;;21.21;33.62
19676;BME280;39539;52.202;9.876;2023-05-03T07:50:51;102041.16;;;19.37;37.53
19676;BME280;39539;52.202;9.876;2023-05-03T07:53:16;102054.53;;;18.16;38.41
19676;BME280;39539;52.202;9.876;2023-05-03T07:55:42;102057.22;;;17.98;39.85
19676;BME280;39539;52.202;9.876;2023-05-03T07:58:07;102053.03;;;16.75;42.05
19676;BME280;39539;52.202;9.876;2023-05-03T08:00:33;102082.56;;;17.83;41.06
19676;BME280;39539;52.202;9.876;2023-05-03T08:02:59;102099.13;;;18.49;40.25
19676;BME280;39539;52.202;9.876;2023-05-03T08:05:43;102095.63;;;18.05;39.31
19676;BME280;39539;52.202;9.876;2023-05-03T08:08:14;102080.84;;;17.32;40.05
19676;BME280;39539;52.202;9.876;2023-05-03T08:10:42;102080.94;;;16.87;41.13
19676;BME280;39539;52.202;9.876;2023-05-03T08:13:09;102081.91;;;16.28;41.46
19676;BME280;39539;52.202;9.876;2023-05-03T08:15:34;102079.28;;;15.68;42.01
19676;BME280;39539;52.202;9.876;2023-05-03T08:18:00;102098.22;;;16.13;42.67
19676;BME280;39539;52.202;9.876;2023-05-03T08:20:26;102134.84;;;19.41;38.98
19676;BME280;39539;52.202;9.876;2023-05-03T08:22:52;102134.00;;;22.30;32.78
19676;BME280;39539;52.202;9.876;2023-05-03T08:25:21;102135.88;;;25.20;30.94
19676;BME280;39539;52.202;9.876;2023-05-03T08:27:47;102126.34;;;27.68;28.38
19676;BME280;39539;52.202;9.876;2023-05-03T08:30:14;102116.25;;;28.70;28.18
19676;BME280;39539;52.202;9.876;2023-05-03T08:32:40;102091.28;;;29.15;27.50
19676;BME280;39539;52.202;9.876;2023-05-03T08:35:06;102074.34;;;26.71;27.88
19676;BME280;39539;52.202;9.876;2023-05-03T08:37:41;102059.59;;;24.16;29.62
19676;BME280;39539;52.202;9.876;2023-05-03T08:40:08;102059.72;;;23.94;30.10
19676;BME280;39539;52.202;9.876;2023-05-03T08:42:43;102053.97;;;23.85;30.96
19676;BME280;39539;52.202;9.876;2023-05-03T08:45:11;102071.53;;;24.78;30.44
19676;BME280;39539;52.202;9.876;2023-05-03T08:47:37;102063.72;;;24.29;32.34
19676;BME280;39539;52.202;9.876;2023-05-03T08:50:05;102073.81;;;25.27;31.07
19676;BME280;39539;52.202;9.876;2023-05-03T08:52:33;102069.13;;;24.86;31.39
19676;BME280;39539;52.202;9.876;2023-05-03T08:54:59;102046.19;;;23.29;32.12
19676;BME280;39539;52.202;9.876;2023-05-03T08:57:25;102052.34;;;22.05;33.56
19676;BME280;39539;52.202;9.876;2023-05-03T08:59:52;102052.84;;;22.18;33.21
19676;BME280;39539;52.202;9.876;2023-05-03T09:02:18;102055.41;;;22.30;32.29
19676;BME280;39539;52.202;9.876;2023-05-03T09:04:45;102041.78;;;21.19;33.64
19676;BME280;39539;52.202;9.876;2023-05-03T09:07:12;102069.09;;;22.84;34.08
19676;BME280;39539;52.202;9.876;2023-05-03T09:09:40;102079.81;;;25.34;29.90
19676;BME280;39539;52.202;9.876;2023-05-03T09:12:05;102066.72;;;25.87;28.43
19676;BME280;39539;52.202;9.876;2023-05-03T09:14:40;102075.34;;;26.30;30.46
19676;BME280;39539;52.202;9.876;2023-05-03T09:17:15;102057.69;;;24.90;30.93
19676;BME280;39539;52.202;9.876;2023-05-03T09:22:18;102055.22;;;26.76;28.23
19676;BME280;39539;52.202;9.876;2023-05-03T09:24:57;102033.53;;;23.40;33.08
19676;BME280;39539;52.202;9.876;2023-05-03T09:27:25;102034.34;;;24.20;31.69
19676;BME280;39539;52.202;9.876;2023-05-03T09:29:51;102034.47;;;24.51;30.22
19676;BME280;39539;52.202;9.876;2023-05-03T09:32:21;102019.78;;;22.88;30.46
19676;BME280;39539;52.202;9.876;2023-05-03T09:35:07;102042.81;;;24.29;30.66
19676;BME280;39539;52.202;9.876;2023-05-03T09:37:36;102042.50;;;25.19;29.99
19676;BME280;39539;52.202;9.876;2023-05-03T09:40:05;102057.47;;;26.63;28.19
19676;BME280;39539;52.202;9.876;2023-05-03T09:43:20;102045.59;;;28.10;27.37
19676;BME280;39539;52.202;9.876;2023-05-03T09:45:45;102041.41;;;27.94;27.50
19676;BME280;39539;52.202;9.876;2023-05-03T09:48:20;102025.41;;;26.90;29.29
19676;BME280;39539;52.202;9.876;2023-05-03T09:50:48;102033.44;;;27.05;30.15
19676;BME280;39539;52.202;9.876;2023-05-03T09:53:14;102030.38;;;26.77;30.51
19676;BME280;39539;52.202;9.876;2023-05-03T09:55:46;102032.47;;;27.59;27.42
19676;BME280;39539;52.202;9.876;2023-05-03T09:58:14;102014.97;;;26.92;27.62
19676;BME280;39539;52.202;9.876;2023-05-03T10:00:40;102015.94;;;27.16;28.30
19676;BME280;39539;52.202;9.876;2023-05-03T10:03:21;102011.59;;;27.10;27.93
19676;BME280;39539;52.202;9.876;2023-05-03T10:05:49;102014.47;;;27.29;28.46
19676;BME280;39539;52.202;9.876;2023-05-03T10:08:40;101992.66;;;26.90;28.14
19676;BME280;39539;52.202;9.876;2023-05-03T10:11:08;101997.63;;;27.12;28.22
19676;BME280;39539;52.202;9.876;2023-05-03T10:13:34;101994.03;;;26.37;28.15
19676;BME280;39539;52.202;9.876;2023-05-03T10:16:05;101997.72;;;26.67;28.52
19676;BME280;39539;52.202;9.876;2023-05-03T10:18:43;101984.94;;;26.03;28.98
19676;BME280;39539;52.202;9.876;2023-05-03T10:21:13;102009.97;;;26.10;29.32
19676;BME280;39539;52.202;9.876;2023-05-03T10:24:15;101985.09;;;23.59;29.77
19676;BME280;39539;52.202;9.876;2023-05-03T10:26:43;101991.34;;;24.07;30.61
19676;BME280;39539;52.202;9.876;2023-05-03T10:32:02;101979.00;;;19.08;36.99
19676;BME280;39539;52.202;9.876;2023-05-03T10:34:35;101961.31;;;17.35;39.76
19676;BME280;39539;52.202;9.876;2023-05-03T10:37:09;101972.84;;;17.67;40.63
19676;BME280;39539;52.202;9.876;2023-05-03T10:39:43;101995.91;;;18.00;42.53
19676;BME280;39539;52.202;9.876;2023-05-03T10:42:10;101995.53;;;17.53;39.52
19676;BME280;39539;52.202;9.876;2023-05-03T10:44:40;101986.72;;;17.14;40.84
19676;BME280;39539;52.202;9.876;2023-05-03T10:47:22;101980.06;;;16.46;42.10
19676;BME280;39539;52.202;9.876;2023-05-03T10:55:08;102017.91;;;16.83;41.02
19676;BME280;39539;52.202;9.876;2023-05-03T10:57:36;102036.91;;;16.88;44.91
19676;BME280;39539;52.202;9.876;2023-05-03T11:00:03;102012.75;;;16.30;41.48
19676;BME280;39539;52.202;9.876;2023-05-03T11:02:38;102022.66;;;16.29;42.08
19676;BME280;39539;52.202;9.876;2023-05-03T11:05:19;102036.66;;;16.38;43.88
19676;BME280;39539;52.202;9.876;2023-05-03T11:08:18;102040.78;;;16.41;44.23
19676;BME280;39539;52.202;9.876;2023-05-03T11:10:45;102045.94;;;16.49;43.99
19676;BME280;39539;52.202;9.876;2023-05-03T11:13:11;102043.09;;;16.24;44.59
19676;BME280;39539;52.202;9.876;2023-05-03T11:15:37;102029.28;;;16.27;47.72
19676;BME280;39539;52.202;9.876;2023-05-03T11:18:06;102045.38;;;16.27;46.39
19676;BME280;39539;52.202;9.876;2023-05-03T11:20:32;102009.13;;;15.18;44.93
19676;BME280;39539;52.202;9.876;2023-05-03T11:23:17;102009.41;;;14.62;44.34
19676;BME280;39539;52.202;9.876;2023-05-03T11:25:44;102011.75;;;14.36;45.54
19676;BME280;39539;52.202;9.876;2023-05-03T11:28:13;102004.59;;;13.74;46.14
19676;BME280;39539;52.202;9.876;2023-05-03T11:30:39;102007.34;;;14.22;45.07
19676;BME280;39539;52.202;9.876;2023-05-03T11:33:07;102029.50;;;14.51;46.82
19676;BME280;39539;52.202;9.876;2023-05-03T11:35:36;102026.88;;;14.16;49.34
19676;BME280;39539;52.202;9.876;2023-05-03T11:38:02;102030.66;;;14.35;48.43
19676;BME280;39539;52.202;9.876;2023-05-03T11:40:43;102046.47;;;14.58;46.94
19676;BME280;39539;52.202;9.876;2023-05-03T11:43:10;102039.72;;;14.75;45.14
19676;BME280;39539;52.202;9.876;2023-05-03T11:45:42;102036.41;;;14.32;45.85
19676;BME280;39539;52.202;9.876;2023-05-03T11:48:09;102028.28;;;13.84;46.81
19676;BME280;39539;52.202;9.876;2023-05-03T11:50:50;102036.81;;;13.94;47.52
19676;BME280;39539;52.202;9.876;2023-05-03T11:53:18;102045.72;;;14.01;48.10
19676;BME280;39539;52.202;9.876;2023-05-03T11:55:45;102043.59;;;14.31;46.40
19676;BME280;39539;52.202;9.876;2023-05-03T11:58:17;102050.06;;;14.44;46.34
19676;BME280;39539;52.202;9.876;2023-05-03T12:00:50;102050.75;;;14.52;47.41
19676;BME280;39539;52.202;9.876;2023-05-03T12:03:20;102064.25;;;14.79;46.66
19676;BME280;39539;52.202;9.876;2023-05-03T12:05:48;102060.03;;;14.63;47.32
19676;BME280;39539;52.202;9.876;2023-05-03T12:08:16;102059.16;;;14.49;48.68
19676;BME280;39539;52.202;9.876;2023-05-03T12:10:44;102054.44;;;14.17;50.05
19676;BME280;39539;52.202;9.876;2023-05-03T12:13:10;102052.09;;;14.42;49.14
19676;BME280;39539;52.202;9.876;2023-05-03T12:15:38;102045.47;;;13.96;49.78
19676;BME280;39539;52.202;9.876;2023-05-03T12:18:06;102030.34;;;14.10;49.59
19676;BME280;39539;52.202;9.876;2023-05-03T12:20:33;102058.16;;;14.22;50.46
19676;BME280;39539;52.202;9.876;2023-05-03T12:23:00;102054.00;;;14.13;49.06
19676;BME280;39539;52.202;9.876;2023-05-03T12:25:30;102053.63;;;14.16;49.00
19676;BME280;39539;52.202;9.876;2023-05-03T12:27:59;102031.28;;;13.67;49.06
19676;BME280;39539;52.202;9.876;2023-05-03T12:30:27;102040.59;;;13.78;50.36
19676;BME280;39539;52.202;9.876;2023-05-03T12:32:54;102033.19;;;13.80;52.12
19676;BME280;39539;52.202;9.876;2023-05-03T12:35:20;102023.19;;;13.61;50.52
19676;BME280;39539;52.202;9.876;2023-05-03T12:37:47;102024.75;;;13.48;49.84
19676;BME280;39539;52.202;9.876;2023-05-03T12:40:14;102041.13;;;13.95;50.37
19676;BME280;39539;52.202;9.876;2023-05-03T12:42:41;102030.03;;;13.70;49.30
19676;BME280;39539;52.202;9.876;2023-05-03T12:45:07;102042.41;;;13.99;47.80
19676;BME280;39539;52.202;9.876;2023-05-03T12:47:33;102025.03;;;13.88;48.70
19676;BME280;39539;52.202;9.876;2023-05-03T12:49:58;102017.41;;;13.85;48.58
19676;BME280;39539;52.202;9.876;2023-05-03T12:52:24;101991.53;;;13.15;49.80
19676;BME280;39539;52.202;9.876;2023-05-03T12:54:51;102019.25;;;13.57;49.08
19676;BME280;39539;52.202;9.876;2023-05-03T12:57:26;102029.72;;;13.80;50.82
19676;BME280;39539;52.202;9.876;2023-05-03T12:59:51;102016.31;;;13.73;49.16
19676;BME280;39539;52.202;9.876;2023-05-03T13:02:20;102007.53;;;13.58;49.88
19676;BME280;39539;52.202;9.876;2023-05-03T13:04:48;102010.47;;;13.20;49.09
19676;BME280;39539;52.202;9.876;2023-05-03T13:07:21;102023.09;;;13.47;51.05